sensor_id;sensor_type;location;lat;lon;timestamp;pressure;altitude;pressure_sealevel;temperature;humidity
75418;BME280;63997;52.112;5.420;2023-12-29T00:00:05;100747.63;;;10.14;92.59
75418;BME280;63997;52.112;5.420;2023-12-29T00:02:32;100738.41;;;10.12;92.75
75418;BME280;63997;52.112;5.420;2023-12-29T00:04:59;100751.38;;;10.13;92.64
75418;BME280;63997;52.112;5.420;2023-12-29T00:07:25;100756.06;;;10.16;92.10
75418;BME280;63997;52.112;5.420;2023-12-29T00:09:52;100744.78;;;10.19;92.36
75418;BME280;63997;52.112;5.420;2023-12-29T00:12:18;100740.56;;;10.18;92.47
75418;BME280;63997;52.112;5.420;2023-12-29T00:14:45;100752.63;;;10.16;92.98
75418;BME280;63997;52.112;5.420;2023-12-29T00:17:11;100752.03;;;10.10;94.48
75418;BME280;63997;52.112;5.420;2023-12-29T00:19:38;100744.84;;;10.02;95.83
75418;BME280;63997;52.112;5.420;2023-12-29T00:22:05;100747.06;;;9.91;97.75
75418;BME280;63997;52.112;5.420;2023-12-29T00:24:31;100733.31;;;9.80;98.43
75418;BME280;63997;52.112;5.420;2023-12-29T00:26:58;100743.22;;;9.71;99.16
75418;BME280;63997;52.112;5.420;2023-12-29T00:29:25;100732.75;;;9.66;100.00
75418;BME280;63997;52.112;5.420;2023-12-29T00:31:54;100715.88;;;9.62;100.00
75418;BME280;63997;52.112;5.420;2023-12-29T00:34:21;100726.81;;;9.61;100.00
75418;BME280;63997;52.112;5.420;2023-12-29T00:36:48;100726.34;;;9.59;100.00
75418;BME280;63997;52.112;5.420;2023-12-29T00:39:15;100729.47;;;9.61;100.00
75418;BME280;63997;52.112;5.420;2023-12-29T00:41:41;100722.59;;;9.68;99.16
75418;BME280;63997;52.112;5.420;2023-12-29T00:44:08;100722.09;;;9.75;98.70
75418;BME280;63997;52.112;5.420;2023-12-29T00:46:35;100703.22;;;9.76;98.30
75418;BME280;63997;52.112;5.420;2023-12-29T00:49:01;100704.75;;;9.77;97.79
75418;BME280;63997;52.112;5.420;2023-12-29T00:51:28;100680.53;;;9.79;97.05
75418;BME280;63997;52.112;5.420;2023-12-29T00:53:55;100694.44;;;9.85;96.81
75418;BME280;63997;52.112;5.420;2023-12-29T00:56:22;100684.41;;;9.90;96.42
75418;BME280;63997;52.112;5.420;2023-12-29T00:58:48;100702.06;;;9.95;95.97
75418;BME280;63997;52.112;5.420;2023-12-29T01:01:15;100703.59;;;9.96;95.67
75418;BME280;63997;52.112;5.420;2023-12-29T01:03:41;100708.91;;;9.96;95.75
75418;BME280;63997;52.112;5.420;2023-12-29T01:06:08;100700.34;;;9.99;95.08
75418;BME280;63997;52.112;5.420;2023-12-29T01:08:35;100687.50;;;10.01;95.34
75418;BME280;63997;52.112;5.420;2023-12-29T01:11:01;100697.34;;;10.00;95.10
75418;BME280;63997;52.112;5.420;2023-12-29T01:13:28;100701.22;;;10.03;95.05
75418;BME280;63997;52.112;5.420;2023-12-29T01:15:54;100716.88;;;10.04;94.79
75418;BME280;63997;52.112;5.420;2023-12-29T01:18:21;100697.19;;;10.05;94.85
75418;BME280;63997;52.112;5.420;2023-12-29T01:20:48;100684.66;;;10.06;94.69
75418;BME280;63997;52.112;5.420;2023-12-29T01:23:14;100700.28;;;10.07;94.94
75418;BME280;63997;52.112;5.420;2023-12-29T01:25:41;100705.59;;;10.07;94.80
75418;BME280;63997;52.112;5.420;2023-12-29T01:28:07;100697.31;;;10.09;94.50
75418;BME280;63997;52.112;5.420;2023-12-29T01:30:34;100702.94;;;10.07;94.89
75418;BME280;63997;52.112;5.420;2023-12-29T01:33:01;100695.75;;;10.08;94.64
75418;BME280;63997;52.112;5.420;2023-12-29T01:35:27;100688.88;;;10.07;94.78
75418;BME280;63997;52.112;5.420;2023-12-29T01:37:54;100674.38;;;10.04;94.80
75418;BME280;63997;52.112;5.420;2023-12-29T01:40:23;100669.69;;;10.01;94.92
75418;BME280;63997;52.112;5.420;2023-12-29T01:42:49;100679.53;;;10.01;95.07
75418;BME280;63997;52.112;5.420;2023-12-29T01:45:23;100687.81;;;9.99;94.88
75418;BME280;63997;52.112;5.420;2023-12-29T01:47:52;100684.38;;;9.99;94.84
75418;BME280;63997;52.112;5.420;2023-12-29T01:50:21;100683.28;;;10.00;94.61
75418;BME280;63997;52.112;5.420;2023-12-29T01:52:49;100688.91;;;9.98;94.62
75418;BME280;63997;52.112;5.420;2023-12-29T01:55:18;100680.16;;;9.98;94.39
75418;BME280;63997;52.112;5.420;2023-12-29T01:57:46;100688.13;;;9.98;94.79
75418;BME280;63997;52.112;5.420;2023-12-29T02:00:14;100699.84;;;9.97;94.98
75418;BME280;63997;52.112;5.420;2023-12-29T02:02:43;100687.66;;;9.96;94.97
75418;BME280;63997;52.112;5.420;2023-12-29T02:05:13;100688.44;;;9.96;95.24
75418;BME280;63997;52.112;5.420;2023-12-29T02:07:40;100696.09;;;9.98;94.87
75418;BME280;63997;52.112;5.420;2023-12-29T02:10:07;100691.09;;;9.96;95.13
75418;BME280;63997;52.112;5.420;2023-12-29T02:12:35;100699.41;;;9.95;95.69
75418;BME280;63997;52.112;5.420;2023-12-29T02:15:04;100704.72;;;9.95;95.65
75418;BME280;63997;52.112;5.420;2023-12-29T02:17:39;100705.34;;;9.92;95.86
75418;BME280;63997;52.112;5.420;2023-12-29T02:20:07;100714.41;;;9.91;96.12
75418;BME280;63997;52.112;5.420;2023-12-29T02:22:34;100709.09;;;9.91;96.28
75418;BME280;63997;52.112;5.420;2023-12-29T02:25:01;100705.97;;;9.89;96.14
75418;BME280;63997;52.112;5.420;2023-12-29T02:27:59;100712.41;;;9.88;96.55
75418;BME280;63997;52.112;5.420;2023-12-29T02:33:05;100728.63;;;9.86;96.86
75418;BME280;63997;52.112;5.420;2023-12-29T02:35:35;100714.13;;;9.84;96.92
75418;BME280;63997;52.112;5.420;2023-12-29T02:38:04;100700.34;;;9.81;97.07
75418;BME280;63997;52.112;5.420;2023-12-29T02:40:30;100699.44;;;9.77;97.33
75418;BME280;63997;52.112;5.420;2023-12-29T02:42:57;100689.00;;;9.72;97.63
75418;BME280;63997;52.112;5.420;2023-12-29T02:45:24;100692.75;;;9.71;98.40
75418;BME280;63997;52.112;5.420;2023-12-29T02:47:50;100711.34;;;9.71;98.38
75418;BME280;63997;52.112;5.420;2023-12-29T02:50:17;100713.50;;;9.69;99.08
75418;BME280;63997;52.112;5.420;2023-12-29T02:52:44;100707.28;;;9.65;99.88
75418;BME280;63997;52.112;5.420;2023-12-29T02:55:10;100709.63;;;9.58;100.00
75418;BME280;63997;52.112;5.420;2023-12-29T02:57:38;100717.91;;;9.57;100.00
75418;BME280;63997;52.112;5.420;2023-12-29T03:00:06;100710.88;;;9.52;100.00
75418;BME280;63997;52.112;5.420;2023-12-29T03:02:32;100706.69;;;9.51;100.00
75418;BME280;63997;52.112;5.420;2023-12-29T03:04:59;100709.94;;;9.48;100.00
75418;BME280;63997;52.112;5.420;2023-12-29T03:07:26;100705.28;;;9.45;100.00
75418;BME280;63997;52.112;5.420;2023-12-29T03:09:53;100716.50;;;9.42;100.00
75418;BME280;63997;52.112;5.420;2023-12-29T03:12:19;100705.44;;;9.40;100.00
75418;BME280;63997;52.112;5.420;2023-12-29T03:14:46;100710.75;;;9.40;100.00
75418;BME280;63997;52.112;5.420;2023-12-29T03:17:13;100709.53;;;9.37;100.00
75418;BME280;63997;52.112;5.420;2023-12-29T03:19:40;100715.44;;;9.34;100.00
75418;BME280;63997;52.112;5.420;2023-12-29T03:22:06;100714.50;;;9.30;100.00
75418;BME280;63997;52.112;5.420;2023-12-29T03:24:34;100719.81;;;9.30;100.00
75418;BME280;63997;52.112;5.420;2023-12-29T03:27:01;100707.94;;;9.27;100.00
75418;BME280;63997;52.112;5.420;2023-12-29T03:29:28;100717.78;;;9.27;100.00
75418;BME280;63997;52.112;5.420;2023-12-29T03:31:54;100709.97;;;9.22;100.00
75418;BME280;63997;52.112;5.420;2023-12-29T03:34:21;100706.06;;;9.19;100.00
75418;BME280;63997;52.112;5.420;2023-12-29T03:36:47;100704.19;;;9.20;100.00
75418;BME280;63997;52.112;5.420;2023-12-29T03:39:14;100698.88;;;9.20;100.00
75418;BME280;63997;52.112;5.420;2023-12-29T03:41:41;100704.06;;;9.16;100.00
75418;BME280;63997;52.112;5.420;2023-12-29T03:44:07;100704.06;;;9.16;100.00
75418;BME280;63997;52.112;5.420;2023-12-29T03:46:34;100716.84;;;9.14;100.00
75418;BME280;63997;52.112;5.420;2023-12-29T03:49:01;100703.28;;;9.16;100.00
75418;BME280;63997;52.112;5.420;2023-12-29T03:51:28;100701.09;;;9.18;100.00
75418;BME280;63997;52.112;5.420;2023-12-29T03:53:55;100689.06;;;9.20;100.00
75418;BME280;63997;52.112;5.420;2023-12-29T03:56:21;100688.13;;;9.25;100.00
75418;BME280;63997;52.112;5.420;2023-12-29T03:58:48;100685.16;;;9.26;100.00
75418;BME280;63997;52.112;5.420;2023-12-29T04:01:15;100682.97;;;9.28;100.00
75418;BME280;63997;52.112;5.420;2023-12-29T04:03:43;100679.22;;;9.30;100.00
75418;BME280;63997;52.112;5.420;2023-12-29T04:06:10;100669.72;;;9.28;100.00
75418;BME280;63997;52.112;5.420;2023-12-29T04:08:37;100684.84;;;9.28;100.00
75418;BME280;63997;52.112;5.420;2023-12-29T04:11:05;100672.69;;;9.27;100.00
75418;BME280;63997;52.112;5.420;2023-12-29T04:13:32;100667.22;;;9.23;100.00
75418;BME280;63997;52.112;5.420;2023-12-29T04:15:58;100660.34;;;9.22;100.00
75418;BME280;63997;52.112;5.420;2023-12-29T04:18:25;100658.00;;;9.21;100.00
75418;BME280;63997;52.112;5.420;2023-12-29T04:20:52;100670.50;;;9.20;100.00
75418;BME280;63997;52.112;5.420;2023-12-29T04:23:18;100679.25;;;9.21;100.00
75418;BME280;63997;52.112;5.420;2023-12-29T04:25:45;100670.97;;;9.22;100.00
75418;BME280;63997;52.112;5.420;2023-12-29T04:28:12;100661.91;;;9.23;100.00
75418;BME280;63997;52.112;5.420;2023-12-29T04:30:39;100682.97;;;9.28;100.00
75418;BME280;63997;52.112;5.420;2023-12-29T04:33:05;100685.63;;;9.28;100.00
75418;BME280;63997;52.112;5.420;2023-12-29T04:35:32;100665.50;;;9.27;100.00
75418;BME280;63997;52.112;5.420;2023-12-29T04:37:58;100665.00;;;9.25;100.00
75418;BME280;63997;52.112;5.420;2023-12-29T04:40:26;100676.13;;;9.27;100.00
75418;BME280;63997;52.112;5.420;2023-12-29T04:42:52;100680.31;;;9.28;100.00
75418;BME280;63997;52.112;5.420;2023-12-29T04:45:19;100690.94;;;9.28;100.00
75418;BME280;63997;52.112;5.420;2023-12-29T04:47:45;100688.28;;;9.28;100.00
75418;BME280;63997;52.112;5.420;2023-12-29T04:50:12;100686.09;;;9.31;100.00
75418;BME280;63997;52.112;5.420;2023-12-29T04:52:38;100685.63;;;9.28;100.00
75418;BME280;63997;52.112;5.420;2023-12-29T04:55:05;100681.09;;;9.29;100.00
75418;BME280;63997;52.112;5.420;2023-12-29T04:57:32;100675.34;;;9.27;100.00
75418;BME280;63997;52.112;5.420;2023-12-29T04:59:59;100682.97;;;9.28;100.00
75418;BME280;63997;52.112;5.420;2023-12-29T05:02:25;100670.47;;;9.29;100.00
75418;BME280;63997;52.112;5.420;2023-12-29T05:04:52;100666.72;;;9.30;100.00
75418;BME280;63997;52.112;5.420;2023-12-29T05:07:18;100673.91;;;9.30;100.00
75418;BME280;63997;52.112;5.420;2023-12-29T05:09:45;100666.28;;;9.28;100.00
75418;BME280;63997;52.112;5.420;2023-12-29T05:12:12;100660.66;;;9.30;100.00
75418;BME280;63997;52.112;5.420;2023-12-29T05:14:38;100660.66;;;9.30;100.00
75418;BME280;63997;52.112;5.420;2023-12-29T05:17:05;100664.06;;;9.30;100.00
75418;BME280;63997;52.112;5.420;2023-12-29T05:19:31;100672.69;;;9.27;100.00
75418;BME280;63997;52.112;5.420;2023-12-29T05:21:58;100657.53;;;9.27;100.00
75418;BME280;63997;52.112;5.420;2023-12-29T05:24:24;100670.94;;;9.31;100.00
75418;BME280;63997;52.112;5.420;2023-12-29T05:26:51;100662.69;;;9.33;100.00
75418;BME280;63997;52.112;5.420;2023-12-29T05:29:17;100677.50;;;9.34;100.00
75418;BME280;63997;52.112;5.420;2023-12-29T05:31:44;100664.69;;;9.36;100.00
75418;BME280;63997;52.112;5.420;2023-12-29T05:34:10;100663.91;;;9.35;100.00
75418;BME280;63997;52.112;5.420;2023-12-29T05:36:37;100673.44;;;9.36;100.00
75418;BME280;63997;52.112;5.420;2023-12-29T05:39:05;100669.38;;;9.39;100.00
75418;BME280;63997;52.112;5.420;2023-12-29T05:41:32;100673.75;;;9.35;100.00
75418;BME280;63997;52.112;5.420;2023-12-29T05:43:59;100655.97;;;9.35;100.00
75418;BME280;63997;52.112;5.420;2023-12-29T05:46:27;100659.38;;;9.36;100.00
75418;BME280;63997;52.112;5.420;2023-12-29T05:48:53;100656.28;;;9.34;100.00
75418;BME280;63997;52.112;5.420;2023-12-29T05:51:20;100675.63;;;9.34;100.00
75418;BME280;63997;52.112;5.420;2023-12-29T05:53:46;100677.06;;;9.32;100.00
75418;BME280;63997;52.112;5.420;2023-12-29T05:56:13;100666.91;;;9.34;100.00
75418;BME280;63997;52.112;5.420;2023-12-29T05:58:41;100668.78;;;9.33;100.00
75418;BME280;63997;52.112;5.420;2023-12-29T06:01:09;100655.34;;;9.30;100.00
75418;BME280;63997;52.112;5.420;2023-12-29T06:03:36;100650.03;;;9.30;100.00
75418;BME280;63997;52.112;5.420;2023-12-29T06:06:03;100655.34;;;9.30;100.00
75418;BME280;63997;52.112;5.420;2023-12-29T06:08:30;100660.31;;;9.31;100.00
75418;BME280;63997;52.112;5.420;2023-12-29T06:10:56;100667.22;;;9.32;100.00
75418;BME280;63997;52.112;5.420;2023-12-29T06:13:23;100654.72;;;9.33;100.00
75418;BME280;63997;52.112;5.420;2023-12-29T06:15:49;100647.06;;;9.31;100.00
75418;BME280;63997;52.112;5.420;2023-12-29T06:18:16;100669.09;;;9.32;100.00
75418;BME280;63997;52.112;5.420;2023-12-29T06:20:43;100662.69;;;9.33;100.00
75418;BME280;63997;52.112;5.420;2023-12-29T06:23:09;100668.44;;;9.35;100.00
75418;BME280;63997;52.112;5.420;2023-12-29T06:25:37;100666.25;;;9.37;100.00
75418;BME280;63997;52.112;5.420;2023-12-29T06:28:06;100656.72;;;9.36;100.00
75418;BME280;63997;52.112;5.420;2023-12-29T06:30:33;100678.91;;;9.40;99.97
75418;BME280;63997;52.112;5.420;2023-12-29T06:33:00;100663.91;;;9.44;99.68
75418;BME280;63997;52.112;5.420;2023-12-29T06:35:27;100676.88;;;9.45;99.62
75418;BME280;63997;52.112;5.420;2023-12-29T06:37:53;100674.22;;;9.45;99.35
75418;BME280;63997;52.112;5.420;2023-12-29T06:40:20;100685.59;;;9.46;99.52
75418;BME280;63997;52.112;5.420;2023-12-29T06:42:46;100675.00;;;9.46;99.08
75418;BME280;63997;52.112;5.420;2023-12-29T06:45:13;100678.75;;;9.45;98.88
75418;BME280;63997;52.112;5.420;2023-12-29T06:47:39;100680.28;;;9.46;99.43
75418;BME280;63997;52.112;5.420;2023-12-29T06:50:07;100669.22;;;9.44;98.96
75418;BME280;63997;52.112;5.420;2023-12-29T06:52:35;100658.28;;;9.45;98.92
75418;BME280;63997;52.112;5.420;2023-12-29T06:55:02;100673.44;;;9.45;98.89
75418;BME280;63997;52.112;5.420;2023-12-29T06:57:29;100653.75;;;9.46;98.90
75418;BME280;63997;52.112;5.420;2023-12-29T06:59:56;100651.56;;;9.48;98.70
75418;BME280;63997;52.112;5.420;2023-12-29T07:02:22;100662.50;;;9.46;99.11
75418;BME280;63997;52.112;5.420;2023-12-29T07:04:49;100659.84;;;9.46;98.98
75418;BME280;63997;52.112;5.420;2023-12-29T07:07:15;100663.28;;;9.47;98.56
75418;BME280;63997;52.112;5.420;2023-12-29T07:09:42;100660.63;;;9.47;98.74
75418;BME280;63997;52.112;5.420;2023-12-29T07:12:09;100660.16;;;9.45;99.02
75418;BME280;63997;52.112;5.420;2023-12-29T07:14:36;100657.06;;;9.43;99.02
75418;BME280;63997;52.112;5.420;2023-12-29T07:17:03;100672.16;;;9.42;99.39
75418;BME280;63997;52.112;5.420;2023-12-29T07:19:30;100669.84;;;9.41;99.45
75418;BME280;63997;52.112;5.420;2023-12-29T07:22:05;100666.09;;;9.42;99.74
75418;BME280;63997;52.112;5.420;2023-12-29T07:24:35;100664.84;;;9.39;99.78
75418;BME280;63997;52.112;5.420;2023-12-29T07:27:03;100670.16;;;9.39;100.00
75418;BME280;63997;52.112;5.420;2023-12-29T07:29:30;100674.69;;;9.39;100.00
75418;BME280;63997;52.112;5.420;2023-12-29T07:31:57;100671.72;;;9.40;99.90
75418;BME280;63997;52.112;5.420;2023-12-29T07:34:23;100673.59;;;9.40;99.94
75418;BME280;63997;52.112;5.420;2023-12-29T07:36:50;100675.78;;;9.38;100.00
75418;BME280;63997;52.112;5.420;2023-12-29T07:39:17;100686.41;;;9.38;100.00
75418;BME280;63997;52.112;5.420;2023-12-29T07:41:44;100682.97;;;9.37;100.00
75418;BME280;63997;52.112;5.420;2023-12-29T07:44:11;100684.53;;;9.38;100.00
75418;BME280;63997;52.112;5.420;2023-12-29T07:46:41;100682.97;;;9.37;100.00
75418;BME280;63997;52.112;5.420;2023-12-29T07:49:07;100682.16;;;9.37;100.00
75418;BME280;63997;52.112;5.420;2023-12-29T07:51:41;100680.63;;;9.36;100.00
75418;BME280;63997;52.112;5.420;2023-12-29T07:54:09;100668.44;;;9.35;100.00
75418;BME280;63997;52.112;5.420;2023-12-29T07:56:35;100667.66;;;9.34;100.00
75418;BME280;63997;52.112;5.420;2023-12-29T07:59:04;100672.53;;;9.32;100.00
75418;BME280;63997;52.112;5.420;2023-12-29T08:01:31;100688.13;;;9.34;100.00
75418;BME280;63997;52.112;5.420;2023-12-29T08:03:58;100689.22;;;9.33;100.00
75418;BME280;63997;52.112;5.420;2023-12-29T08:06:24;100694.53;;;9.33;100.00
75418;BME280;63997;52.112;5.420;2023-12-29T08:08:53;100699.50;;;9.34;100.00
75418;BME280;63997;52.112;5.420;2023-12-29T08:11:20;100701.84;;;9.36;100.00
75418;BME280;63997;52.112;5.420;2023-12-29T08:13:47;100689.06;;;9.38;100.00
75418;BME280;63997;52.112;5.420;2023-12-29T08:16:15;100685.31;;;9.39;100.00
75418;BME280;63997;52.112;5.420;2023-12-29T08:18:44;100685.44;;;9.42;100.00
75418;BME280;63997;52.112;5.420;2023-12-29T08:21:20;100686.25;;;9.43;100.00
75418;BME280;63997;52.112;5.420;2023-12-29T08:23:47;100687.47;;;9.45;100.00
75418;BME280;63997;52.112;5.420;2023-12-29T08:26:14;100696.53;;;9.44;100.00
75418;BME280;63997;52.112;5.420;2023-12-29T08:28:40;100696.53;;;9.44;100.00
75418;BME280;63997;52.112;5.420;2023-12-29T08:31:07;100699.97;;;9.45;100.00
75418;BME280;63997;52.112;5.420;2023-12-29T08:33:34;100706.06;;;9.45;100.00
75418;BME280;63997;52.112;5.420;2023-12-29T08:36:05;100692.47;;;9.47;100.00
75418;BME280;63997;52.112;5.420;2023-12-29T08:38:33;100694.03;;;9.48;100.00
75418;BME280;63997;52.112;5.420;2023-12-29T08:40:59;100704.03;;;9.51;100.00
75418;BME280;63997;52.112;5.420;2023-12-29T08:43:26;100691.22;;;9.53;100.00
75418;BME280;63997;52.112;5.420;2023-12-29T08:45:53;100698.09;;;9.54;100.00
75418;BME280;63997;52.112;5.420;2023-12-29T08:48:19;100695.13;;;9.56;100.00
75418;BME280;63997;52.112;5.420;2023-12-29T08:50:46;100691.69;;;9.55;100.00
75418;BME280;63997;52.112;5.420;2023-12-29T08:53:12;100701.22;;;9.56;100.00
75418;BME280;63997;52.112;5.420;2023-12-29T08:55:39;100704.97;;;9.55;100.00
75418;BME280;63997;52.112;5.420;2023-12-29T08:58:06;100693.72;;;9.49;100.00
75418;BME280;63997;52.112;5.420;2023-12-29T09:00:32;100698.88;;;9.46;100.00
75418;BME280;63997;52.112;5.420;2023-12-29T09:02:59;100704.50;;;9.44;100.00
75418;BME280;63997;52.112;5.420;2023-12-29T09:05:26;100701.06;;;9.44;100.00
75418;BME280;63997;52.112;5.420;2023-12-29T09:07:52;100692.34;;;9.43;100.00
75418;BME280;63997;52.112;5.420;2023-12-29T09:10:19;100699.19;;;9.44;100.00
75418;BME280;63997;52.112;5.420;2023-12-29T09:12:45;100693.13;;;9.44;100.00
75418;BME280;63997;52.112;5.420;2023-12-29T09:15:12;100692.47;;;9.47;100.00
75418;BME280;63997;52.112;5.420;2023-12-29T09:17:39;100691.84;;;9.50;100.00
75418;BME280;63997;52.112;5.420;2023-12-29T09:20:06;100685.44;;;9.51;100.00
75418;BME280;63997;52.112;5.420;2023-12-29T09:22:37;100697.63;;;9.52;100.00
75418;BME280;63997;52.112;5.420;2023-12-29T09:25:04;100704.97;;;9.55;100.00
75418;BME280;63997;52.112;5.420;2023-12-29T09:27:31;100706.69;;;9.60;100.00
75418;BME280;63997;52.112;5.420;2023-12-29T09:29:57;100697.75;;;9.64;100.00
75418;BME280;63997;52.112;5.420;2023-12-29T09:32:24;100714.16;;;9.66;100.00
75418;BME280;63997;52.112;5.420;2023-12-29T09:34:51;100710.84;;;9.69;100.00
75418;BME280;63997;52.112;5.420;2023-12-29T09:37:18;100726.00;;;9.77;100.00
75418;BME280;63997;52.112;5.420;2023-12-29T09:39:44;100718.00;;;9.86;100.00
75418;BME280;63997;52.112;5.420;2023-12-29T09:42:20;100733.66;;;9.88;100.00
75418;BME280;63997;52.112;5.420;2023-12-29T09:44:52;100729.25;;;9.92;100.00
75418;BME280;63997;52.112;5.420;2023-12-29T09:47:23;100732.38;;;9.94;100.00
75418;BME280;63997;52.112;5.420;2023-12-29T09:49:52;100735.50;;;9.96;100.00
75418;BME280;63997;52.112;5.420;2023-12-29T09:52:22;100726.09;;;9.98;100.00
75418;BME280;63997;52.112;5.420;2023-12-29T09:54:52;100730.00;;;10.01;100.00
75418;BME280;63997;52.112;5.420;2023-12-29T09:57:19;100725.63;;;10.05;100.00
75418;BME280;63997;52.112;5.420;2023-12-29T09:59:48;100724.97;;;10.08;100.00
75418;BME280;63997;52.112;5.420;2023-12-29T10:02:15;100731.22;;;10.12;100.00
75418;BME280;63997;52.112;5.420;2023-12-29T10:04:44;100725.91;;;10.12;100.00
75418;BME280;63997;52.112;5.420;2023-12-29T10:07:17;100726.22;;;10.11;100.00
75418;BME280;63997;52.112;5.420;2023-12-29T10:09:45;100732.00;;;10.13;100.00
75418;BME280;63997;52.112;5.420;2023-12-29T10:12:14;100724.97;;;10.17;100.00
75418;BME280;63997;52.112;5.420;2023-12-29T10:14:48;100713.69;;;10.20;100.00
75418;BME280;63997;52.112;5.420;2023-12-29T10:17:41;100716.34;;;10.28;100.00
75418;BME280;63997;52.112;5.420;2023-12-29T10:22:57;100717.44;;;10.57;100.00
75418;BME280;63997;52.112;5.420;2023-12-29T10:25:27;100719.25;;;10.65;99.40
75418;BME280;63997;52.112;5.420;2023-12-29T10:27:55;100734.19;;;10.57;99.25
75418;BME280;63997;52.112;5.420;2023-12-29T10:30:22;100733.91;;;10.50;99.44
75418;BME280;63997;52.112;5.420;2023-12-29T10:32:59;100722.69;;;10.45;99.30
75418;BME280;63997;52.112;5.420;2023-12-29T10:35:27;100733.31;;;10.45;99.52
75418;BME280;63997;52.112;5.420;2023-12-29T10:37:54;100739.72;;;10.44;99.82
75418;BME280;63997;52.112;5.420;2023-12-29T10:40:21;100728.63;;;10.42;99.19
75418;BME280;63997;52.112;5.420;2023-12-29T10:42:57;100739.06;;;10.47;99.21
75418;BME280;63997;52.112;5.420;2023-12-29T10:45:31;100733.91;;;10.50;98.42
75418;BME280;63997;52.112;5.420;2023-12-29T10:48:00;100738.91;;;10.52;98.59
75418;BME280;63997;52.112;5.420;2023-12-29T10:50:26;100734.69;;;10.51;98.67
75418;BME280;63997;52.112;5.420;2023-12-29T10:53:12;100737.03;;;10.52;98.68
75418;BME280;63997;52.112;5.420;2023-12-29T10:55:39;100740.91;;;10.55;98.92
75418;BME280;63997;52.112;5.420;2023-12-29T10:58:06;100739.81;;;10.56;98.21
75418;BME280;63997;52.112;5.420;2023-12-29T11:00:32;100749.97;;;10.54;97.83
75418;BME280;63997;52.112;5.420;2023-12-29T11:02:59;100754.41;;;10.50;97.83
75418;BME280;63997;52.112;5.420;2023-12-29T11:05:27;100743.63;;;10.46;98.40
75418;BME280;63997;52.112;5.420;2023-12-29T11:07:54;100755.69;;;10.44;98.49
75418;BME280;63997;52.112;5.420;2023-12-29T11:10:21;100749.44;;;10.40;98.31
75418;BME280;63997;52.112;5.420;2023-12-29T11:12:49;100750.22;;;10.40;98.15
75418;BME280;63997;52.112;5.420;2023-12-29T11:15:16;100751.91;;;10.45;98.50
75418;BME280;63997;52.112;5.420;2023-12-29T11:17:43;100758.13;;;10.49;98.07
75418;BME280;63997;52.112;5.420;2023-12-29T11:20:16;100753.75;;;10.53;98.09
75418;BME280;63997;52.112;5.420;2023-12-29T11:22:45;100768.41;;;10.59;98.05
75418;BME280;63997;52.112;5.420;2023-12-29T11:25:12;100751.06;;;10.62;98.12
75418;BME280;63997;52.112;5.420;2023-12-29T11:27:40;100758.38;;;10.65;97.47
75418;BME280;63997;52.112;5.420;2023-12-29T11:30:07;100751.31;;;10.69;97.04
75418;BME280;63997;52.112;5.420;2023-12-29T11:35:11;100762.41;;;10.71;96.37
75418;BME280;63997;52.112;5.420;2023-12-29T11:40:29;100758.47;;;10.77;95.68
75418;BME280;63997;52.112;5.420;2023-12-29T11:43:00;100753.16;;;10.77;95.82
75418;BME280;63997;52.112;5.420;2023-12-29T11:45:31;100761.44;;;10.75;95.84
75418;BME280;63997;52.112;5.420;2023-12-29T11:48:01;100755.81;;;10.77;95.64
75418;BME280;63997;52.112;5.420;2023-12-29T11:50:30;100765.81;;;10.80;95.86
75418;BME280;63997;52.112;5.420;2023-12-29T11:52:58;100757.84;;;10.80;95.29
75418;BME280;63997;52.112;5.420;2023-12-29T11:55:29;100750.63;;;10.80;94.98
75418;BME280;63997;52.112;5.420;2023-12-29T11:57:57;100753.28;;;10.80;94.75
75418;BME280;63997;52.112;5.420;2023-12-29T12:00:46;100745.75;;;10.82;94.87
75418;BME280;63997;52.112;5.420;2023-12-29T12:03:33;100752.19;;;10.81;93.85
75418;BME280;63997;52.112;5.420;2023-12-29T12:06:00;100749.19;;;10.83;93.77
75418;BME280;63997;52.112;5.420;2023-12-29T12:08:35;100752.31;;;10.85;93.67
75418;BME280;63997;52.112;5.420;2023-12-29T12:13:55;100756.22;;;10.88;92.93
75418;BME280;63997;52.112;5.420;2023-12-29T12:16:47;100754.31;;;10.88;92.71
75418;BME280;63997;52.112;5.420;2023-12-29T12:19:15;100751.38;;;10.90;92.64
75418;BME280;63997;52.112;5.420;2023-12-29T12:21:45;100758.25;;;10.91;92.66
75418;BME280;63997;52.112;5.420;2023-12-29T12:24:13;100741.16;;;10.92;92.11
75418;BME280;63997;52.112;5.420;2023-12-29T12:26:40;100740.41;;;10.91;92.53
75418;BME280;63997;52.112;5.420;2023-12-29T12:29:08;100745.63;;;11.00;92.99
75418;BME280;63997;52.112;5.420;2023-12-29T12:31:34;100735.91;;;11.04;92.67
75418;BME280;63997;52.112;5.420;2023-12-29T12:34:01;100742.69;;;11.01;92.42
75418;BME280;63997;52.112;5.420;2023-12-29T12:36:28;100741.56;;;11.02;93.33
75418;BME280;63997;52.112;5.420;2023-12-29T12:38:56;100733.72;;;11.06;93.52
75418;BME280;63997;52.112;5.420;2023-12-29T12:41:24;100729.50;;;11.05;92.95
75418;BME280;63997;52.112;5.420;2023-12-29T12:44:00;100738.13;;;11.02;93.27
75418;BME280;63997;52.112;5.420;2023-12-29T12:46:33;100739.25;;;11.01;92.88
75418;BME280;63997;52.112;5.420;2023-12-29T12:49:00;100733.78;;;10.97;93.16
75418;BME280;63997;52.112;5.420;2023-12-29T12:51:27;100727.22;;;10.95;93.26
75418;BME280;63997;52.112;5.420;2023-12-29T12:53:53;100732.56;;;10.95;93.60
75418;BME280;63997;52.112;5.420;2023-12-29T12:56:20;100728.13;;;10.99;94.08
75418;BME280;63997;52.112;5.420;2023-12-29T12:58:47;100730.59;;;11.04;93.66
75418;BME280;63997;52.112;5.420;2023-12-29T13:01:14;100729.97;;;11.07;93.58
75418;BME280;63997;52.112;5.420;2023-12-29T13:03:41;100734.31;;;11.11;94.07
75418;BME280;63997;52.112;5.420;2023-12-29T13:06:08;100733.06;;;11.09;93.38
75418;BME280;63997;52.112;5.420;2023-12-29T13:08:35;100723.84;;;11.06;93.32